Time;durP1;ratioP1;P1;durP2;ratioP2;P2;SDS_P1;SDS_P2;PMS_P1;PMS_P2;Temp;Humidity;BMP_temperature;BMP_pressure;BME280_temperature;BME280_humidity;BME280_pressure;Samples;Min_cycle;Max_cycle;Signal;HPM_P1;HPM_P2
2021/11/27 00:00:08;;;;;;;4.35;3.15;;;;;;;2.45;100.00;98358.09;6323874;28;20560;-83
2021/11/27 00:03:10;;;;;;;10.02;3.97;;;;;;;2.46;100.00;98353.75;6325875;28;20058;-82
2021/11/27 00:06:13;;;;;;;5.15;2.47;;;;;;;2.42;100.00;98352.25;6340014;28;20051;-82
2021/11/27 00:09:14;;;;;;;6.10;2.65;;;;;;;2.39;100.00;98353.25;6325923;28;20044;-82
2021/11/27 00:12:16;;;;;;;6.68;2.40;;;;;;;2.38;100.00;98351.59;6324279;28;20059;-82
2021/11/27 00:15:18;;;;;;;6.28;2.97;;;;;;;2.42;100.00;98349.66;6324600;28;20052;-82
2021/11/27 00:18:22;;;;;;;5.22;3.33;;;;;;;2.44;100.00;98346.03;6324813;28;20071;-82
2021/11/27 00:21:26;;;;;;;3.67;2.25;;;;;;;2.46;100.00;98340.78;6316408;28;20101;-82
2021/11/27 00:24:27;;;;;;;6.93;2.78;;;;;;;2.45;100.00;98339.09;6323706;28;20059;-83
2021/11/27 00:27:28;;;;;;;4.97;2.60;;;;;;;2.46;100.00;98339.03;6324548;28;20040;-82
2021/11/27 00:30:33;;;;;;;6.68;3.70;;;;;;;2.46;100.00;98338.19;6324561;28;20048;-82
2021/11/27 00:33:35;;;;;;;5.07;3.13;;;;;;;2.53;100.00;98336.91;6320214;28;20118;-82
2021/11/27 00:36:37;;;;;;;4.03;2.42;;;;;;;2.48;100.00;98334.56;6324257;28;20059;-82
2021/11/27 00:39:39;;;;;;;5.90;2.70;;;;;;;2.47;100.00;98337.28;6324005;28;20126;-82
2021/11/27 00:42:40;;;;;;;4.05;2.90;;;;;;;2.50;100.00;98335.34;6299910;28;20053;-81
2021/11/27 00:45:45;;;;;;;5.95;3.60;;;;;;;2.47;100.00;98332.09;6298642;28;20049;-82
2021/11/27 00:48:47;;;;;;;3.65;2.15;;;;;;;2.51;100.00;98343.94;6298668;28;20051;-82
2021/11/27 00:51:50;;;;;;;4.75;2.97;;;;;;;2.51;100.00;98334.41;6298121;28;20048;-81
2021/11/27 00:54:51;;;;;;;3.08;2.20;;;;;;;2.47;100.00;98337.28;6299902;28;20051;-82
2021/11/27 00:57:53;;;;;;;3.35;2.35;;;;;;;2.48;100.00;98336.34;6298609;28;20048;-81
2021/11/27 01:00:59;;;;;;;3.53;2.58;;;;;;;2.47;100.00;98327.72;6298335;28;20048;-82
2021/11/27 01:04:01;;;;;;;4.53;2.90;;;;;;;2.47;100.00;98327.72;6298444;28;20051;-82
2021/11/27 01:07:06;;;;;;;4.95;2.75;;;;;;;2.41;100.00;98330.69;6298294;28;20487;-81
2021/11/27 01:10:10;;;;;;;6.40;2.22;;;;;;;2.36;100.00;98330.09;6297180;28;20540;-82
2021/11/27 01:13:12;;;;;;;3.45;1.80;;;;;;;2.34;100.00;98318.19;6297912;28;20049;-83
2021/11/27 01:16:14;;;;;;;2.80;2.13;;;;;;;2.29;100.00;98326.22;6298068;28;20423;-82
2021/11/27 01:19:16;;;;;;;2.95;2.20;;;;;;;2.30;100.00;98325.28;6297790;28;20059;-83
2021/11/27 01:22:21;;;;;;;5.50;2.33;;;;;;;2.37;100.00;98324.03;6297682;28;20059;-82
2021/11/27 01:25:23;;;;;;;3.42;2.20;;;;;;;2.33;100.00;98324.28;6307971;28;20047;-82
2021/11/27 01:28:26;;;;;;;6.13;3.17;;;;;;;2.31;100.00;98320.94;6323032;28;20051;-83
2021/11/27 01:31:27;;;;;;;4.50;3.15;;;;;;;2.31;100.00;98321.78;6322609;28;20048;-83
2021/11/27 01:34:29;;;;;;;4.72;2.42;;;;;;;2.30;100.00;98322.69;6322913;28;20048;-82
2021/11/27 01:37:33;;;;;;;4.00;2.83;;;;;;;2.21;100.00;98321.47;6322653;28;20044;-82
2021/11/27 01:40:36;;;;;;;4.00;2.33;;;;;;;2.17;100.00;98320.00;6322815;28;20182;-83
2021/11/27 01:43:39;;;;;;;4.28;2.30;;;;;;;2.18;100.00;98321.69;6322585;28;20040;-82
2021/11/27 01:46:41;;;;;;;4.25;2.20;;;;;;;2.17;100.00;98325.16;6322244;28;20040;-82
2021/11/27 01:49:42;;;;;;;3.55;2.22;;;;;;;2.16;100.00;98327.84;6322374;28;20388;-83
2021/11/27 01:52:45;;;;;;;3.63;2.00;;;;;;;2.15;100.00;98323.59;6322196;28;20047;-83
2021/11/27 01:55:47;;;;;;;5.00;2.03;;;;;;;2.12;100.00;98324.59;6312666;28;20048;-83
2021/11/27 01:58:48;;;;;;;4.88;2.28;;;;;;;2.12;100.00;98324.59;6302612;28;20040;-82
2021/11/27 02:01:50;;;;;;;3.22;2.35;;;;;;;2.11;100.00;98325.53;6322109;28;20058;-83
2021/11/27 02:04:51;;;;;;;5.22;2.40;;;;;;;2.12;100.00;98323.78;6322384;28;20051;-83
2021/11/27 02:07:55;;;;;;;2.42;2.13;;;;;;;2.08;100.00;98317.09;6322192;28;20048;-82
2021/11/27 02:10:56;;;;;;;2.53;1.95;;;;;;;2.12;100.00;98334.97;6329095;28;20435;-82
2021/11/27 02:13:59;;;;;;;3.22;1.80;;;;;;;2.10;100.00;98323.88;6326322;28;20495;-83
2021/11/27 02:17:00;;;;;;;4.78;2.67;;;;;;;2.10;100.00;98320.47;6322062;28;20052;-82
2021/11/27 02:20:02;;;;;;;2.92;2.17;;;;;;;2.11;100.00;98319.53;6329460;28;20062;-82
2021/11/27 02:23:06;;;;;;;2.13;1.92;;;;;;;2.11;100.00;98322.13;6324380;28;20059;-82
2021/11/27 02:26:11;;;;;;;3.03;2.03;;;;;;;2.12;100.00;98318.59;6320432;28;20128;-82
2021/11/27 02:29:17;;;;;;;3.80;2.08;;;;;;;2.18;100.00;98315.63;6322264;28;20039;-82
2021/11/27 02:32:19;;;;;;;3.55;1.95;;;;;;;2.17;100.00;98311.38;6321127;28;20392;-82
2021/11/27 02:35:21;;;;;;;4.18;1.95;;;;;;;2.20;100.00;98316.41;6321776;28;20044;-83
2021/11/27 02:38:23;;;;;;;4.10;2.08;;;;;;;2.23;100.00;98316.22;6321883;28;20051;-81
2021/11/27 02:41:26;;;;;;;1.30;1.17;;;;;;;2.24;100.00;98316.13;6321698;28;20056;-82
2021/11/27 02:44:30;;;;;;;2.33;1.50;;;;;;;2.24;100.00;98316.13;6321322;28;20044;-82
2021/11/27 02:47:31;;;;;;;4.75;1.85;;;;;;;2.24;100.00;98317.88;6321714;28;20065;-82
2021/11/27 02:50:33;;;;;;;1.98;1.55;;;;;;;2.25;100.00;98317.78;6321179;28;20097;-82
2021/11/27 02:53:36;;;;;;;1.52;1.42;;;;;;;2.26;100.00;98316.84;6321544;28;20055;-82
2021/11/27 02:56:38;;;;;;;4.97;1.92;;;;;;;2.30;100.00;98309.75;6300298;28;20056;-83
2021/11/27 02:59:39;;;;;;;3.78;1.98;;;;;;;2.27;100.00;98315.09;6296324;28;20450;-83
2021/11/27 03:02:41;;;;;;;2.25;1.20;;;;;;;2.28;100.00;98314.19;6296434;28;20049;-83
2021/11/27 03:05:42;;;;;;;2.45;1.65;;;;;;;2.32;100.00;98318.28;6295966;28;20502;-82
2021/11/27 03:08:45;;;;;;;2.13;1.45;;;;;;;2.36;100.00;98308.53;6296574;28;20052;-83
2021/11/27 03:11:49;;;;;;;2.53;1.65;;;;;;;2.33;100.00;98306.97;6295777;28;20045;-82
2021/11/27 03:14:50;;;;;;;4.47;1.55;;;;;;;2.34;100.00;98307.81;6296269;28;20084;-83
2021/11/27 03:17:52;;;;;;;4.53;1.42;;;;;;;2.31;100.00;98302.81;6296228;28;20048;-83
2021/11/27 03:20:54;;;;;;;1.65;1.27;;;;;;;2.34;100.00;98307.81;6296085;28;20049;-83
2021/11/27 03:23:57;;;;;;;2.45;1.80;;;;;;;2.32;100.00;98305.31;6295987;28;20045;-83
2021/11/27 03:26:58;;;;;;;4.65;1.80;;;;;;;2.34;100.00;98313.00;6316047;28;20419;-83
2021/11/27 03:30:00;;;;;;;4.68;2.30;;;;;;;2.35;100.00;98310.31;6321160;28;20055;-83
2021/11/27 03:33:01;;;;;;;4.07;1.75;;;;;;;2.38;100.00;98309.31;6323559;28;20056;-83
2021/11/27 03:36:03;;;;;;;2.03;1.50;;;;;;;2.41;100.00;98315.16;6325628;28;20054;-83
2021/11/27 03:39:07;;;;;;;3.80;1.40;;;;;;;2.43;100.00;98307.28;6325848;28;20048;-83
2021/11/27 03:42:12;;;;;;;2.75;1.27;;;;;;;2.41;100.00;98315.16;6325311;28;20048;-84
2021/11/27 03:45:19;;;;;;;3.22;2.13;;;;;;;2.41;100.00;98320.34;6325370;28;20058;-84
2021/11/27 03:48:27;;;;;;;2.78;1.50;;;;;;;2.42;100.00;98309.03;6325911;28;20181;-83
2021/11/27 03:51:28;;;;;;;2.00;1.23;;;;;;;2.47;100.00;98309.59;6325072;28;20063;-84
2021/11/27 03:54:31;;;;;;;2.58;1.25;;;;;;;2.48;100.00;98307.81;6324818;28;20059;-83
2021/11/27 03:57:33;;;;;;;1.83;1.50;;;;;;;2.51;100.00;98312.84;6300576;28;20040;-84
2021/11/27 04:00:35;;;;;;;2.70;1.20;;;;;;;2.48;100.00;98313.00;6326670;28;20053;-84
2021/11/27 04:03:39;;;;;;;4.53;1.48;;;;;;;2.46;100.00;98327.84;6324841;28;20483;-84
2021/11/27 04:06:41;;;;;;;3.85;1.90;;;;;;;2.45;100.00;98318.38;6324781;28;20071;-84
2021/11/27 04:09:43;;;;;;;3.83;1.80;;;;;;;2.44;100.00;98334.84;6329389;28;20040;-84
2021/11/27 04:12:45;;;;;;;2.08;1.90;;;;;;;2.44;100.00;98327.06;6338450;28;20126;-84
2021/11/27 04:15:46;;;;;;;2.25;1.60;;;;;;;2.45;100.00;98329.59;6325257;28;20059;-83
2021/11/27 04:18:47;;;;;;;1.85;1.75;;;;;;;2.44;100.00;98329.66;6325390;28;20044;-84
2021/11/27 04:21:49;;;;;;;3.15;1.55;;;;;;;2.45;100.00;98328.72;6324940;28;20048;-84
2021/11/27 04:24:51;;;;;;;4.22;1.67;;;;;;;2.43;100.00;98330.59;6323416;28;20044;-84
2021/11/27 04:27:54;;;;;;;3.22;2.25;;;;;;;2.43;100.00;98340.97;6324400;28;20051;-84
2021/11/27 04:30:56;;;;;;;2.97;1.55;;;;;;;2.45;100.00;98336.50;6324255;28;20044;-84
2021/11/27 04:33:57;;;;;;;2.30;1.38;;;;;;;2.44;100.00;98335.69;6324657;28;20048;-84
2021/11/27 04:36:58;;;;;;;4.63;2.15;;;;;;;2.43;100.00;98344.38;6324647;28;20056;-84
2021/11/27 04:40:03;;;;;;;2.88;1.83;;;;;;;2.41;100.00;98350.59;6324208;28;20044;-84
2021/11/27 04:43:05;;;;;;;3.20;1.48;;;;;;;2.44;100.00;98348.63;6324276;28;20051;-84
2021/11/27 04:46:06;;;;;;;1.80;1.33;;;;;;;2.46;100.00;98357.19;6324369;28;20048;-85
2021/11/27 04:49:08;;;;;;;2.97;1.75;;;;;;;2.47;100.00;98356.25;6324444;28;20051;-84
2021/11/27 04:52:09;;;;;;;3.00;1.80;;;;;;;2.47;100.00;98353.66;6324149;28;20047;-84
2021/11/27 04:55:14;;;;;;;5.75;1.73;;;;;;;2.47;100.00;98351.06;6324035;28;20056;-84
2021/11/27 04:58:16;;;;;;;3.28;1.50;;;;;;;2.46;100.00;98357.19;6324066;28;20048;-84
2021/11/27 05:01:17;;;;;;;2.97;2.10;;;;;;;2.47;100.00;98364.03;6323819;28;20044;-83
2021/11/27 05:04:19;;;;;;;4.13;1.90;;;;;;;2.48;100.00;98370.03;6323604;28;20133;-84
2021/11/27 05:07:20;;;;;;;3.00;1.35;;;;;;;2.48;100.00;98370.88;6323433;28;20044;-84
2021/11/27 05:10:23;;;;;;;2.67;1.75;;;;;;;2.47;100.00;98369.22;6323496;28;20403;-84
2021/11/27 05:13:25;;;;;;;2.88;1.88;;;;;;;2.45;100.00;98370.22;6323813;28;20047;-83
2021/11/27 05:16:26;;;;;;;3.20;1.65;;;;;;;2.43;100.00;98370.31;6323400;28;20059;-83
2021/11/27 05:19:28;;;;;;;2.00;1.17;;;;;;;2.46;100.00;98375.31;6323844;28;20048;-83
2021/11/27 05:22:29;;;;;;;4.50;1.63;;;;;;;2.45;100.00;98380.56;6323613;28;20067;-83
2021/11/27 05:25:32;;;;;;;3.28;1.85;;;;;;;2.48;100.00;98385.59;6323244;28;20044;-84
2021/11/27 05:28:33;;;;;;;3.45;1.80;;;;;;;2.48;100.00;98383.81;6323687;28;20040;-83
2021/11/27 05:31:35;;;;;;;4.20;2.05;;;;;;;2.52;100.00;98387.91;6323292;28;20051;-83
2021/11/27 05:34:36;;;;;;;2.80;1.98;;;;;;;2.51;100.00;98393.19;6323082;28;20051;-83
2021/11/27 05:37:38;;;;;;;3.35;1.80;;;;;;;2.48;100.00;98386.41;6323107;28;20430;-83
2021/11/27 05:40:41;;;;;;;3.63;1.38;;;;;;;2.48;100.00;98391.59;6323362;28;20048;-84
2021/11/27 05:43:43;;;;;;;6.50;1.98;;;;;;;2.48;100.00;98396.78;6323893;28;20414;-84
2021/11/27 05:46:45;;;;;;;1.50;1.15;;;;;;;2.47;100.00;98394.28;6323727;28;20059;-84
2021/11/27 05:49:46;;;;;;;2.17;1.80;;;;;;;2.49;100.00;98400.22;6323240;28;20051;-84
2021/11/27 05:52:47;;;;;;;1.77;1.40;;;;;;;2.50;100.00;98392.38;6322870;28;20052;-84
2021/11/27 05:55:51;;;;;;;4.53;2.10;;;;;;;2.50;100.00;98399.31;6321150;28;20048;-85
2021/11/27 05:58:55;;;;;;;4.70;1.95;;;;;;;2.54;100.00;98405.97;6321436;28;20058;-84
2021/11/27 06:01:57;;;;;;;1.83;1.25;;;;;;;2.51;100.00;98404.41;6302797;28;20097;-84
2021/11/27 06:04:58;;;;;;;1.83;1.55;;;;;;;2.52;100.00;98411.25;6323290;28;20048;-84
2021/11/27 06:08:00;;;;;;;1.95;1.08;;;;;;;2.54;100.00;98411.16;6323017;28;20071;-85
2021/11/27 06:11:02;;;;;;;2.28;1.88;;;;;;;2.55;100.00;98415.44;6322521;28;20047;-84
2021/11/27 06:14:04;;;;;;;2.47;1.60;;;;;;;2.53;100.00;98409.47;6323358;28;20501;-85
2021/11/27 06:17:05;;;;;;;3.33;1.85;;;;;;;2.53;100.00;98410.31;6322448;28;20384;-84
2021/11/27 06:20:08;;;;;;;3.03;1.95;;;;;;;2.54;100.00;98418.91;6322840;28;20048;-85
2021/11/27 06:23:09;;;;;;;4.25;2.15;;;;;;;2.50;100.00;98420.88;6322306;28;20059;-85
2021/11/27 06:26:12;;;;;;;1.95;1.25;;;;;;;2.48;100.00;98420.13;6304178;28;20049;-85
2021/11/27 06:29:13;;;;;;;2.78;2.00;;;;;;;2.52;100.00;98416.44;6296948;28;20409;-85
2021/11/27 06:32:15;;;;;;;2.70;1.23;;;;;;;2.47;100.00;98428.00;6296966;28;20055;-84
2021/11/27 06:35:17;;;;;;;3.15;1.67;;;;;;;2.47;100.00;98435.78;6296680;28;20530;-84
2021/11/27 06:38:20;;;;;;;2.40;1.42;;;;;;;2.46;100.00;98434.94;6296968;28;20045;-84
2021/11/27 06:41:25;;;;;;;2.72;2.10;;;;;;;2.52;100.00;98439.75;6296893;28;20127;-84
2021/11/27 06:44:26;;;;;;;3.95;1.63;;;;;;;2.45;100.00;98447.97;6297004;28;20486;-83
2021/11/27 06:47:28;;;;;;;3.50;2.13;;;;;;;2.41;100.00;98462.06;6297115;28;20052;-84
2021/11/27 06:50:31;;;;;;;1.52;1.27;;;;;;;2.38;100.00;98457.03;6296545;28;20502;-84
2021/11/27 06:53:33;;;;;;;1.98;1.33;;;;;;;2.36;100.00;98462.28;6296982;28;20423;-84
2021/11/27 06:56:35;;;;;;;2.22;1.58;;;;;;;2.35;100.00;98460.63;6297227;28;20045;-85
2021/11/27 06:59:39;;;;;;;2.92;2.13;;;;;;;2.28;100.00;98470.50;6296919;28;20056;-84
2021/11/27 07:02:40;;;;;;;2.70;1.55;;;;;;;2.28;100.00;98473.09;6296710;28;20419;-84
2021/11/27 07:05:42;;;;;;;2.40;1.67;;;;;;;2.28;100.00;98478.28;6297156;28;20060;-85
2021/11/27 07:08:43;;;;;;;1.80;0.95;;;;;;;2.31;100.00;98481.59;6300215;28;20055;-84
2021/11/27 07:11:46;;;;;;;3.15;1.85;;;;;;;2.29;100.00;98489.47;6303377;28;20487;-85
2021/11/27 07:14:48;;;;;;;1.65;1.38;;;;;;;2.30;100.00;98493.72;6314638;28;20126;-84
2021/11/27 07:17:50;;;;;;;1.52;1.15;;;;;;;2.26;100.00;98500.84;6301473;28;20044;-84
2021/11/27 07:20:51;;;;;;;1.83;1.55;;;;;;;2.23;100.00;98497.59;6308418;28;20045;-84
2021/11/27 07:23:53;;;;;;;1.70;1.13;;;;;;;2.23;100.00;98498.44;6315948;28;20051;-83
2021/11/27 07:26:59;;;;;;;1.15;0.98;;;;;;;2.17;100.00;98503.09;6315295;28;20072;-84
2021/11/27 07:30:00;;;;;;;2.53;1.33;;;;;;;2.18;100.00;98504.78;6325224;28;20055;-84
2021/11/27 07:33:02;;;;;;;2.17;1.40;;;;;;;2.18;100.00;98504.78;6317511;28;20044;-83
2021/11/27 07:36:04;;;;;;;2.55;1.27;;;;;;;2.18;100.00;98513.41;6312760;28;20040;-84
2021/11/27 07:39:07;;;;;;;3.45;0.90;;;;;;;2.16;100.00;98515.22;6322217;28;20056;-83
2021/11/27 07:42:11;;;;;;;1.70;1.30;;;;;;;2.16;100.00;98519.56;6317844;28;20129;-83
2021/11/27 07:45:16;;;;;;;2.35;1.33;;;;;;;2.15;100.00;98517.91;6326009;28;20055;-83
2021/11/27 07:48:18;;;;;;;1.63;0.75;;;;;;;2.13;100.00;98524.91;6325994;28;20075;-84
2021/11/27 07:51:21;;;;;;;3.53;1.15;;;;;;;2.15;100.00;98530.88;6306095;28;20063;-83
2021/11/27 07:54:22;;;;;;;1.80;1.40;;;;;;;2.13;100.00;98525.75;6305343;28;20051;-82
2021/11/27 07:57:25;;;;;;;3.22;1.35;;;;;;;2.11;100.00;98522.41;6325266;28;20079;-84
2021/11/27 08:00:28;;;;;;;0.75;0.73;;;;;;;2.15;100.00;98526.53;6329429;28;20048;-83
2021/11/27 08:03:29;;;;;;;1.40;0.90;;;;;;;2.17;100.00;98531.59;6330791;28;20048;-83
2021/11/27 08:06:31;;;;;;;2.10;1.40;;;;;;;2.16;100.00;98538.53;6325979;28;20052;-83
2021/11/27 08:09:32;;;;;;;1.80;1.27;;;;;;;2.15;100.00;98534.28;6329420;28;20044;-84
2021/11/27 08:12:35;;;;;;;2.15;1.25;;;;;;;2.15;100.00;98538.63;6324822;28;20059;-84
2021/11/27 08:15:36;;;;;;;1.75;1.02;;;;;;;2.15;100.00;98542.06;6325372;28;20672;-84
2021/11/27 08:18:38;;;;;;;2.15;1.48;;;;;;;2.16;100.00;98553.25;6325135;28;20142;-84
2021/11/27 08:21:39;;;;;;;1.67;1.05;;;;;;;2.17;100.00;98554.94;6329644;28;20050;-84
2021/11/27 08:24:41;;;;;;;1.45;0.95;;;;;;;2.20;100.00;98558.19;6321361;28;20059;-83
2021/11/27 08:27:43;;;;;;;1.90;1.08;;;;;;;2.21;100.00;98556.44;6314404;28;20518;-84
2021/11/27 08:30:45;;;;;;;1.48;0.98;;;;;;;2.20;100.00;98565.13;6324348;28;20047;-83
2021/11/27 08:33:46;;;;;;;1.55;1.23;;;;;;;2.23;100.00;98563.22;6324298;28;20051;-84
2021/11/27 08:36:48;;;;;;;1.67;1.25;;;;;;;2.22;100.00;98558.94;6325032;28;20059;-84
2021/11/27 08:39:49;;;;;;;0.82;0.73;;;;;;;2.26;100.00;98562.19;6324675;28;20044;-82
2021/11/27 08:42:52;;;;;;;1.65;1.40;;;;;;;2.25;100.00;98579.50;6324613;28;20051;-83
2021/11/27 08:45:53;;;;;;;1.88;1.20;;;;;;;2.24;100.00;98570.06;6324031;28;20499;-83
2021/11/27 08:48:55;;;;;;;1.20;1.10;;;;;;;2.27;100.00;98574.22;6324607;28;20054;-84
2021/11/27 08:51:59;;;;;;;1.15;1.05;;;;;;;2.27;100.00;98574.22;6324344;28;20419;-84
2021/11/27 08:55:03;;;;;;;1.33;1.20;;;;;;;2.27;100.00;98571.63;6311123;28;20076;-85
2021/11/27 08:58:06;;;;;;;1.15;0.90;;;;;;;2.31;100.00;98578.31;6299957;28;20052;-85
2021/11/27 09:01:10;;;;;;;1.52;1.20;;;;;;;2.37;100.00;98579.78;6300407;28;20048;-85
2021/11/27 09:04:21;;;;;;;1.27;1.17;;;;;;;2.41;100.00;98587.28;6299734;28;20052;-86
2021/11/27 09:07:23;;;;;;;0.90;0.90;;;;;;;2.48;100.00;98591.22;6299669;28;20044;-86
2021/11/27 09:10:24;;;;;;;1.60;1.00;;;;;;;2.52;100.00;98587.53;6316508;28;20051;-87
2021/11/27 09:13:27;;;;;;;0.82;0.80;;;;;;;2.59;100.00;98590.63;6324703;28;20044;-85
2021/11/27 09:16:28;;;;;;;1.70;1.55;;;;;;;2.59;100.00;98602.72;6324308;28;20510;-86
2021/11/27 09:19:30;;;;;;;2.70;1.33;;;;;;;2.61;100.00;98595.72;6323928;28;20055;-86
2021/11/27 09:22:31;;;;;;;2.05;1.23;;;;;;;2.64;100.00;98592.97;6324090;28;20056;-86
2021/11/27 09:25:33;;;;;;;1.73;1.35;;;;;;;2.66;100.00;98610.09;6304753;28;20048;-85
2021/11/27 09:28:36;;;;;;;2.28;1.30;;;;;;;2.70;100.00;98600.41;6298640;28;20052;-85
2021/11/27 09:31:39;;;;;;;2.80;1.40;;;;;;;2.75;100.00;98607.00;6297679;28;20040;-85
2021/11/27 09:34:41;;;;;;;2.08;1.00;;;;;;;2.82;100.00;98611.81;6298451;28;20045;-86
2021/11/27 09:38:24;;;;;;;1.38;1.13;;;;;;;2.86;100.00;98615.91;6298516;28;20069;-86
2021/11/27 09:41:29;;;;;;;3.13;1.63;;;;;;;2.91;100.00;98621.72;6312187;28;20044;-83
2021/11/27 09:44:34;;;;;;;1.55;1.10;;;;;;;2.93;100.00;98615.50;6323366;28;20138;-84
2021/11/27 09:47:36;;;;;;;2.58;1.70;;;;;;;2.96;100.00;98615.34;6321600;28;20047;-82
2021/11/27 09:50:38;;;;;;;2.80;1.30;;;;;;;3.02;100.00;98621.94;6321348;28;20052;-82
2021/11/27 09:53:41;;;;;;;1.50;1.40;;;;;;;3.08;100.00;98623.34;6315943;28;20491;-82
2021/11/27 09:56:42;;;;;;;1.88;1.70;;;;;;;3.05;100.00;98625.19;6321296;28;20059;-82
2021/11/27 09:59:47;;;;;;;2.70;1.60;;;;;;;3.13;100.00;98626.50;6318115;28;20047;-80
2021/11/27 10:02:55;;;;;;;2.83;1.48;;;;;;;3.16;100.00;98629.75;6311549;28;20139;-81
2021/11/27 10:05:58;;;;;;;1.88;1.35;;;;;;;3.22;100.00;98633.75;6321816;28;20052;-81
2021/11/27 10:09:01;;;;;;;1.30;1.20;;;;;;;3.25;100.00;98628.41;6322205;28;20051;-81
2021/11/27 10:12:07;;;;;;;2.22;1.45;;;;;;;3.28;100.00;98628.22;6321566;28;20044;-81
2021/11/27 10:15:11;;;;;;;4.05;2.08;;;;;;;3.31;100.00;98631.47;6322182;28;20531;-81
2021/11/27 10:18:14;;;;;;;3.20;1.63;;;;;;;3.40;100.00;98631.88;6320072;28;20048;-81
2021/11/27 10:21:19;;;;;;;2.08;1.48;;;;;;;3.48;100.00;98633.09;6316039;28;20143;-83
2021/11/27 10:24:23;;;;;;;1.60;1.40;;;;;;;3.53;100.00;98635.41;6319512;28;20051;-81
2021/11/27 10:27:27;;;;;;;2.20;1.58;;;;;;;3.54;100.00;98640.53;6317283;28;20067;-82
2021/11/27 10:30:39;;;;;;;2.40;1.90;;;;;;;3.60;100.00;98639.34;6320988;28;20040;-83
2021/11/27 10:33:41;;;;;;;2.22;1.67;;;;;;;3.68;100.00;98638.88;6319766;28;20453;-80
2021/11/27 10:36:43;;;;;;;2.53;1.35;;;;;;;3.70;100.00;98637.03;6320805;28;20070;-80
2021/11/27 10:39:56;;;;;;;2.88;1.50;;;;;;;3.75;100.00;98637.59;6321601;28;20060;-80
2021/11/27 10:42:59;;;;;;;2.95;1.60;;;;;;;3.81;100.00;98643.28;6325573;28;20048;-80
2021/11/27 10:46:02;;;;;;;7.55;2.33;;;;;;;3.84;100.00;98644.84;6326994;28;20051;-81
2021/11/27 10:49:05;;;;;;;2.45;1.42;;;;;;;3.89;100.00;98649.75;6327243;28;20051;-81
2021/11/27 10:52:08;;;;;;;2.20;1.52;;;;;;;3.87;100.00;98655.06;6326392;28;20051;-81
2021/11/27 10:55:22;;;;;;;2.72;1.83;;;;;;;3.88;100.00;98648.09;6310989;28;20048;-81
2021/11/27 10:58:23;;;;;;;3.30;2.03;;;;;;;3.86;100.00;98647.34;6301430;28;20051;-81
2021/11/27 11:01:26;;;;;;;3.15;1.65;;;;;;;3.88;100.00;98653.28;6304530;28;20418;-81
2021/11/27 11:04:28;;;;;;;2.38;1.95;;;;;;;3.86;100.00;98656.00;6327561;28;20044;-81
2021/11/27 11:07:30;;;;;;;2.75;1.55;;;;;;;3.93;100.00;98654.69;6330041;28;20055;-80
2021/11/27 11:10:33;;;;;;;2.38;1.55;;;;;;;3.91;100.00;98658.31;6327029;28;20047;-81
2021/11/27 11:13:35;;;;;;;5.35;2.15;;;;;;;3.94;100.00;98663.31;6325878;28;20047;-81
2021/11/27 11:16:55;;;;;;;2.90;2.28;;;;;;;3.97;100.00;98657.94;6334490;28;20059;-81
2021/11/27 11:20:12;;;;;;;3.33;1.63;;;;;;;4.07;100.00;98659.06;6326387;28;20051;-80
2021/11/27 11:23:20;;;;;;;2.45;1.80;;;;;;;4.21;100.00;98656.44;6324046;28;20059;-80
2021/11/27 11:26:24;;;;;;;3.05;1.73;;;;;;;4.17;100.00;98660.16;6318936;28;20461;-80
2021/11/27 11:29:42;;;;;;;4.40;2.10;;;;;;;4.11;100.00;98659.72;6325923;28;20482;-81
2021/11/27 11:32:44;;;;;;;2.40;1.95;;;;;;;3.95;100.00;98665.84;6323095;28;20040;-79
2021/11/27 11:35:47;;;;;;;1.85;1.23;;;;;;;3.86;100.00;98670.72;6316900;28;20518;-80
2021/11/27 11:38:52;;;;;;;3.63;1.90;;;;;;;3.82;100.00;98670.09;6333913;28;20388;-80
2021/11/27 11:41:54;;;;;;;3.92;2.05;;;;;;;3.79;100.00;98676.28;6327149;28;20052;-80
2021/11/27 11:44:57;;;;;;;3.50;1.85;;;;;;;3.78;100.00;98676.41;6326067;28;20067;-80
2021/11/27 11:48:00;;;;;;;4.50;2.20;;;;;;;3.67;100.00;98676.16;6326207;28;20487;-80
2021/11/27 11:51:14;;;;;;;5.28;2.53;;;;;;;3.69;100.00;98675.16;6325503;28;20043;-79
2021/11/27 11:54:16;;;;;;;5.03;2.35;;;;;;;3.78;100.00;98676.41;6329748;28;20054;-80
2021/11/27 11:57:17;;;;;;;4.50;2.10;;;;;;;3.80;100.00;98682.31;6329420;28;20074;-80
2021/11/27 12:00:26;;;;;;;4.10;2.17;;;;;;;3.83;100.00;98689.09;6324947;28;20510;-80
2021/11/27 12:03:34;;;;;;;5.40;2.80;;;;;;;3.80;100.00;98690.94;6324997;28;20071;-80
2021/11/27 12:06:37;;;;;;;5.15;2.65;;;;;;;3.76;100.00;98692.03;6325398;28;20113;-82
2021/11/27 12:10:09;;;;;;;4.22;1.58;;;;;;;3.78;100.00;98692.81;6327002;28;20040;-80
2021/11/27 12:13:25;;;;;;;5.72;2.75;;;;;;;3.81;100.00;98696.97;6324825;28;20048;-81
2021/11/27 12:16:26;;;;;;;8.45;2.65;;;;;;;3.78;100.00;98702.38;6329714;28;20044;-81
2021/11/27 12:19:37;;;;;;;4.93;2.17;;;;;;;3.78;100.00;98697.16;6332696;28;20490;-80
2021/11/27 12:22:40;;;;;;;5.10;2.15;;;;;;;3.80;100.00;98703.09;6329610;28;20052;-80
2021/11/27 12:25:41;;;;;;;3.35;2.05;;;;;;;3.72;100.00;98703.53;6332845;28;20422;-80
2021/11/27 12:29:04;;;;;;;3.08;1.75;;;;;;;3.72;100.00;98713.09;6330924;28;20058;-80
2021/11/27 12:32:10;;;;;;;3.97;2.38;;;;;;;3.61;100.00;98705.94;6325277;28;20055;-80
2021/11/27 12:35:41;;;;;;;4.20;2.00;;;;;;;3.59;100.00;98704.34;6327024;28;20144;-81
2021/11/27 12:38:55;;;;;;;4.53;1.77;;;;;;;3.60;100.00;98713.81;6321080;28;20059;-81
2021/11/27 12:42:19;;;;;;;2.15;1.40;;;;;;;3.59;100.00;98719.91;6333828;28;20058;-81
2021/11/27 12:45:35;;;;;;;3.63;1.83;;;;;;;3.58;100.00;98726.03;6330499;28;20051;-82
2021/11/27 12:48:37;;;;;;;2.53;1.30;;;;;;;3.56;100.00;98726.16;6319699;28;20123;-82
2021/11/27 12:51:40;;;;;;;3.95;1.77;;;;;;;3.58;100.00;98721.69;6330485;28;20501;-82
2021/11/27 12:54:42;;;;;;;2.78;1.35;;;;;;;3.62;100.00;98728.38;6307793;28;20049;-82
2021/11/27 12:57:46;;;;;;;1.73;1.10;;;;;;;3.66;100.00;98726.44;6301687;28;20052;-82
2021/11/27 13:00:47;;;;;;;2.22;1.58;;;;;;;3.67;100.00;98728.13;6333731;28;20060;-77
2021/11/27 13:03:53;;;;;;;2.30;1.25;;;;;;;3.70;100.00;98722.75;6327551;27;20055;-82
2021/11/27 13:06:56;;;;;;;2.20;1.42;;;;;;;3.65;100.00;98733.41;6322936;28;20840;-82
2021/11/27 13:10:01;;;;;;;2.35;1.25;;;;;;;3.66;100.00;98731.63;6323403;28;20047;-82
2021/11/27 13:13:11;;;;;;;1.42;1.25;;;;;;;3.59;100.00;98738.97;6323585;28;20056;-81
2021/11/27 13:16:15;;;;;;;;;;;;;;;3.55;100.00;98740.06;6321470;28;20058;-82
2021/11/27 13:19:30;;;;;;;0.93;0.70;;;;;;;3.49;100.00;98751.59;6324352;28;19927;-82
2021/11/27 13:22:33;;;;;;;3.47;1.48;;;;;;;3.47;100.00;98753.47;6328938;28;20051;-81
2021/11/27 13:25:38;;;;;;;2.45;1.80;;;;;;;3.45;100.00;98754.47;6332011;28;20545;-81
2021/11/27 13:28:43;;;;;;;1.63;1.35;;;;;;;3.44;100.00;98760.59;6323419;28;20052;-80
2021/11/27 13:31:45;;;;;;;4.22;1.98;;;;;;;3.46;100.00;98763.94;6322611;28;20124;-82
2021/11/27 13:34:50;;;;;;;4.07;2.00;;;;;;;3.38;100.00;98766.97;6323523;28;20048;-82
2021/11/27 13:37:55;;;;;;;4.65;1.95;;;;;;;3.34;100.00;98775.00;6334691;28;20051;-82
2021/11/27 13:40:58;;;;;;;3.80;1.67;;;;;;;3.29;100.00;98776.09;6335968;28;20044;-79
2021/11/27 13:43:59;;;;;;;4.95;2.28;;;;;;;3.29;100.00;98772.66;6324210;28;20051;-86
2021/11/27 13:47:01;;;;;;;3.70;1.65;;;;;;;3.24;100.00;98782.47;6323352;28;20511;-82
2021/11/27 13:50:10;;;;;;;4.30;2.10;;;;;;;3.21;100.00;98782.63;6322681;28;20059;-80
2021/11/27 13:53:14;;;;;;;4.28;2.03;;;;;;;3.18;100.00;98788.84;6322291;28;20047;-81
2021/11/27 13:56:16;;;;;;;4.15;2.40;;;;;;;3.13;100.00;98795.19;6319029;28;20045;-82
2021/11/27 13:59:24;;;;;;;5.03;2.05;;;;;;;3.07;100.00;98798.94;6322572;28;20126;-82
2021/11/27 14:02:26;;;;;;;4.35;2.00;;;;;;;3.11;100.00;98803.06;6314656;28;20040;-82
2021/11/27 14:05:29;;;;;;;3.58;1.75;;;;;;;3.10;100.00;98803.16;6322322;28;20044;-82
2021/11/27 14:08:31;;;;;;;3.35;1.88;;;;;;;3.11;100.00;98803.06;6322540;28;20051;-81
2021/11/27 14:11:36;;;;;;;3.88;2.08;;;;;;;3.12;100.00;98807.31;6322874;28;20052;-82
2021/11/27 14:14:53;;;;;;;5.32;2.00;;;;;;;3.13;100.00;98802.97;6322725;28;20048;-82
2021/11/27 14:18:08;;;;;;;3.30;1.92;;;;;;;3.16;100.00;98805.41;6322709;28;20051;-82
2021/11/27 14:21:15;;;;;;;5.90;2.70;;;;;;;3.17;100.00;98809.66;6323657;28;20502;-83
2021/11/27 14:24:18;;;;;;;4.10;2.17;;;;;;;3.13;100.00;98823.72;6321539;28;20052;-83